createdAt,value
2022-11-05T00:00:45.541Z,8.20
2022-11-05T00:03:49.574Z,9.27
2022-11-05T00:07:04.005Z,8.73
2022-11-05T00:09:49.932Z,8.10
2022-11-05T00:12:53.674Z,8.68
2022-11-05T00:15:58.158Z,8.00
2022-11-05T00:18:43.106Z,8.32
2022-11-05T00:21:46.735Z,8.73
2022-11-05T00:24:50.543Z,8.80
2022-11-05T00:27:35.588Z,8.32
2022-11-05T00:30:26.163Z,7.72
2022-11-05T00:33:11.453Z,8.18
2022-11-05T00:35:56.649Z,8.27
2022-11-05T00:38:41.282Z,8.00
2022-11-05T00:41:26.200Z,8.20
2022-11-05T00:44:29.674Z,7.22
2022-11-05T00:47:33.682Z,7.45
2022-11-05T00:50:21.289Z,6.85
2022-11-05T00:53:06.881Z,8.10
2022-11-05T00:55:51.991Z,6.70
2022-11-05T00:58:36.840Z,6.97
2022-11-05T01:01:21.767Z,7.80
2022-11-05T01:04:07.092Z,6.90
2022-11-05T01:06:51.913Z,6.93
2022-11-05T01:09:36.664Z,7.03
2022-11-05T01:12:21.551Z,7.13
2022-11-05T01:15:06.884Z,6.55
2022-11-05T01:17:52.293Z,6.85
2022-11-05T01:20:37.103Z,7.60
2022-11-05T01:23:22.210Z,6.95
2022-11-05T01:26:07.298Z,7.78
2022-11-05T01:28:57.412Z,7.15
2022-11-05T01:31:42.248Z,7.50
2022-11-05T01:34:27.038Z,7.87
2022-11-05T01:37:11.907Z,7.50
2022-11-05T01:39:56.894Z,8.30
2022-11-05T01:42:42.026Z,7.35
2022-11-05T01:45:28.255Z,8.02
2022-11-05T01:48:28.152Z,7.17
2022-11-05T01:51:17.397Z,7.35
2022-11-05T01:54:07.928Z,7.55
2022-11-05T01:56:58.020Z,7.75
2022-11-05T01:59:48.031Z,7.72
2022-11-05T02:02:33.150Z,7.63
2022-11-05T02:05:18.152Z,7.90
2022-11-05T02:08:03.493Z,8.23
2022-11-05T02:10:48.602Z,8.75
2022-11-05T02:13:33.635Z,8.23
2022-11-05T02:16:39.416Z,8.47
2022-11-05T02:20:01.816Z,8.27
2022-11-05T02:23:19.184Z,8.07
2022-11-05T02:26:35.081Z,7.60
2022-11-05T02:29:45.823Z,8.98
2022-11-05T02:32:47.770Z,8.50
2022-11-05T02:35:54.261Z,7.70
2022-11-05T02:39:10.124Z,8.02
2022-11-05T02:42:18.229Z,8.20
2022-11-05T02:45:30.981Z,8.23
2022-11-05T02:48:53.504Z,7.80
2022-11-05T02:51:58.350Z,7.95
2022-11-05T02:54:53.838Z,8.10
2022-11-05T02:57:44.535Z,7.88
2022-11-05T03:01:01.841Z,7.68
2022-11-05T03:03:50.076Z,7.37
2022-11-05T03:07:10.001Z,7.43
2022-11-05T03:10:25.218Z,7.22
2022-11-05T03:13:30.079Z,7.95
2022-11-05T03:16:26.572Z,7.88
2022-11-05T03:19:20.256Z,7.67
2022-11-05T03:22:10.771Z,7.45
2022-11-05T03:25:00.341Z,6.38
2022-11-05T03:27:50.197Z,7.40
2022-11-05T03:30:37.623Z,6.30
2022-11-05T03:33:27.366Z,7.60
2022-11-05T03:36:19.089Z,6.72
2022-11-05T03:39:07.552Z,7.60
2022-11-05T03:41:53.963Z,7.38
2022-11-05T03:44:45.137Z,6.70
2022-11-05T03:47:37.792Z,6.93
2022-11-05T03:50:41.606Z,6.43
2022-11-05T03:53:30.191Z,6.32
2022-11-05T03:56:26.650Z,6.55
2022-11-05T03:59:12.502Z,6.38
2022-11-05T04:01:58.379Z,6.40
2022-11-05T04:04:43.601Z,6.40
2022-11-05T04:07:47.308Z,6.85
2022-11-05T04:10:51.046Z,6.55
2022-11-05T04:13:36.142Z,7.60
2022-11-05T04:16:56.518Z,6.67
2022-11-05T04:20:02.523Z,6.43
2022-11-05T04:23:06.252Z,6.68
2022-11-05T04:25:51.619Z,7.15
2022-11-05T04:29:09.101Z,6.70
2022-11-05T04:31:54.513Z,6.37
2022-11-05T04:34:39.581Z,6.45
2022-11-05T04:37:24.580Z,6.78
2022-11-05T04:40:09.881Z,6.40
2022-11-05T04:42:56.114Z,7.00
2022-11-05T04:45:41.358Z,7.63
2022-11-05T04:48:26.196Z,6.60
2022-11-05T04:51:11.180Z,6.70
2022-11-05T04:53:55.980Z,6.93
2022-11-05T04:56:40.913Z,7.00
2022-11-05T04:59:25.725Z,7.03
2022-11-05T05:02:10.720Z,7.30
2022-11-05T05:04:55.457Z,7.25
2022-11-05T05:07:41.832Z,7.13
2022-11-05T05:10:26.670Z,7.15
2022-11-05T05:13:11.739Z,7.43
2022-11-05T05:15:58.450Z,6.82
2022-11-05T05:18:46.216Z,7.03
2022-11-05T05:21:40.924Z,6.97
2022-11-05T05:24:25.904Z,6.65
2022-11-05T05:27:10.884Z,6.87
2022-11-05T05:29:59.480Z,6.45
2022-11-05T05:32:44.347Z,5.60
2022-11-05T05:35:29.452Z,6.07
2022-11-05T05:38:14.570Z,6.63
2022-11-05T05:41:00.122Z,6.07
2022-11-05T05:43:45.166Z,5.78
2022-11-05T05:46:30.133Z,5.75
2022-11-05T05:49:15.113Z,5.97
2022-11-05T05:51:59.892Z,6.00
2022-11-05T05:54:44.937Z,5.90
2022-11-05T05:57:29.710Z,5.55
2022-11-05T06:00:14.925Z,5.80
2022-11-05T06:02:59.788Z,5.78
2022-11-05T06:05:44.741Z,5.45
2022-11-05T06:08:30.260Z,5.40
2022-11-05T06:11:15.417Z,5.85
2022-11-05T06:14:00.343Z,5.15
2022-11-05T06:16:45.178Z,5.20
2022-11-05T06:19:29.930Z,5.10
2022-11-05T06:22:14.898Z,5.43
2022-11-05T06:24:59.665Z,5.28
2022-11-05T06:27:44.546Z,5.28
2022-11-05T06:30:29.425Z,5.13
2022-11-05T06:33:14.343Z,4.72
2022-11-05T06:36:00.347Z,4.67
2022-11-05T06:38:45.593Z,4.95
2022-11-05T06:41:30.730Z,5.90
2022-11-05T06:44:15.608Z,4.70
2022-11-05T06:47:00.600Z,5.38
2022-11-05T06:49:46.198Z,4.97
2022-11-05T06:52:31.420Z,4.80
2022-11-05T06:55:16.186Z,4.55
2022-11-05T06:58:01.137Z,5.05
2022-11-05T07:00:46.077Z,4.65
2022-11-05T07:03:31.398Z,5.17
2022-11-05T07:06:16.645Z,5.13
2022-11-05T07:09:01.493Z,5.50
2022-11-05T07:11:46.438Z,5.15
2022-11-05T07:14:31.026Z,4.45
2022-11-05T07:17:17.812Z,5.63
2022-11-05T07:20:03.909Z,5.55
2022-11-05T07:22:48.716Z,7.97
2022-11-05T07:25:34.063Z,7.75
2022-11-05T07:28:19.292Z,7.88
2022-11-05T07:31:04.327Z,6.07
2022-11-05T07:33:49.202Z,6.40
2022-11-05T07:36:34.058Z,7.72
2022-11-05T07:39:18.769Z,7.50
2022-11-05T07:42:03.692Z,6.32
2022-11-05T07:44:48.577Z,5.70
2022-11-05T07:47:33.401Z,5.90
2022-11-05T07:50:21.123Z,5.50
2022-11-05T07:53:10.452Z,5.60
2022-11-05T07:55:57.071Z,4.72
2022-11-05T07:58:42.300Z,4.27
2022-11-05T08:01:28.054Z,3.85
2022-11-05T08:04:13.326Z,4.28
2022-11-05T08:06:58.299Z,4.57
2022-11-05T08:09:43.068Z,5.45
2022-11-05T08:12:27.915Z,4.23
2022-11-05T08:15:12.642Z,4.60
2022-11-05T08:17:59.166Z,3.83
2022-11-05T08:20:45.277Z,4.40
2022-11-05T08:23:31.564Z,3.90
2022-11-05T08:26:16.441Z,4.43
2022-11-05T08:29:01.249Z,4.40
2022-11-05T08:31:46.046Z,4.10
2022-11-05T08:34:30.798Z,3.25
2022-11-05T08:37:15.636Z,4.43
2022-11-05T08:40:00.581Z,3.63
2022-11-05T08:42:45.443Z,3.60
2022-11-05T08:45:31.145Z,4.38
2022-11-05T08:48:18.001Z,3.88
2022-11-05T08:51:03.105Z,3.60
2022-11-05T08:53:48.164Z,3.33
2022-11-05T08:56:33.277Z,4.05
2022-11-05T08:59:18.257Z,3.83
2022-11-05T09:02:03.204Z,3.65
2022-11-05T09:04:48.634Z,3.22
2022-11-05T09:07:33.491Z,2.50
2022-11-05T09:10:18.671Z,3.03
2022-11-05T09:13:04.744Z,2.72
2022-11-05T09:15:50.358Z,3.25
2022-11-05T09:18:35.390Z,3.33
2022-11-05T09:21:20.425Z,2.90
2022-11-05T09:24:05.999Z,3.10
2022-11-05T09:26:51.076Z,2.90
2022-11-05T09:29:36.605Z,1.50
2022-11-05T09:32:23.079Z,2.60
2022-11-05T09:35:09.523Z,2.60
2022-11-05T09:37:59.727Z,2.88
2022-11-05T09:41:00.396Z,2.45
2022-11-05T09:43:55.783Z,2.40
2022-11-05T09:46:45.510Z,2.30
2022-11-05T09:49:39.978Z,2.43
2022-11-05T09:52:28.851Z,2.00
2022-11-05T09:55:26.144Z,2.10
2022-11-05T09:58:28.370Z,1.80
2022-11-05T10:01:22.764Z,2.65
2022-11-05T10:04:16.123Z,2.30
2022-11-05T10:07:05.678Z,2.47
2022-11-05T10:09:59.442Z,1.35
2022-11-05T10:12:53.122Z,1.95
2022-11-05T10:15:45.278Z,2.20
2022-11-05T10:18:34.391Z,1.70
2022-11-05T10:21:37.843Z,2.03
2022-11-05T10:24:25.514Z,1.92
2022-11-05T10:27:18.270Z,2.42
2022-11-05T10:30:04.373Z,1.80
2022-11-05T10:32:54.453Z,1.60
2022-11-05T10:35:49.007Z,1.65
2022-11-05T10:38:33.951Z,1.75
2022-11-05T10:41:44.844Z,1.77
2022-11-05T10:44:38.750Z,1.83
2022-11-05T10:47:51.681Z,1.50
2022-11-05T10:50:36.827Z,1.60
2022-11-05T10:53:34.024Z,1.30
2022-11-05T10:56:35.397Z,1.45
2022-11-05T10:59:25.130Z,1.60
2022-11-05T11:02:21.747Z,1.00
2022-11-05T11:05:08.517Z,0.75
2022-11-05T11:07:57.476Z,1.05
2022-11-05T11:10:50.182Z,0.82
2022-11-05T11:13:57.087Z,0.80
2022-11-05T11:16:44.233Z,0.60
2022-11-05T11:19:32.598Z,0.68
2022-11-05T11:22:20.254Z,0.70
2022-11-05T11:25:24.315Z,0.65
2022-11-05T11:28:18.574Z,0.70
2022-11-05T11:31:08.617Z,0.70
2022-11-05T11:34:04.415Z,0.52
2022-11-05T11:36:54.028Z,0.70
2022-11-05T11:39:40.156Z,0.60
2022-11-05T11:42:33.845Z,0.70
2022-11-05T11:45:24.527Z,0.60
2022-11-05T11:48:17.019Z,0.85
2022-11-05T11:51:34.127Z,0.63
2022-11-05T11:54:28.840Z,0.80
2022-11-05T11:57:26.527Z,0.50
2022-11-05T12:00:11.947Z,0.60
2022-11-05T12:03:02.809Z,0.63
2022-11-05T12:05:55.311Z,0.80
2022-11-05T12:09:05.192Z,0.75
2022-11-05T12:12:08.886Z,0.75
2022-11-05T12:15:15.133Z,0.60
2022-11-05T12:18:03.855Z,0.95
2022-11-05T12:21:12.830Z,0.80
2022-11-05T12:24:23.302Z,1.10
2022-11-05T12:27:36.388Z,1.08
2022-11-05T12:30:22.516Z,0.90
2022-11-05T12:33:23.624Z,0.77
2022-11-05T12:36:27.961Z,0.57
2022-11-05T12:39:42.343Z,0.63
2022-11-05T12:42:45.724Z,0.82
2022-11-05T12:45:47.225Z,0.37
2022-11-05T12:48:41.426Z,0.68
2022-11-05T12:51:38.462Z,0.90
2022-11-05T12:54:55.650Z,0.60
2022-11-05T12:57:45.351Z,0.90
2022-11-05T13:00:30.561Z,0.90
2022-11-05T13:03:37.112Z,0.60
2022-11-05T13:06:29.865Z,1.00
2022-11-05T13:09:25.355Z,0.77
2022-11-05T13:12:13.312Z,1.00
2022-11-05T13:15:05.221Z,1.10
2022-11-05T13:17:54.818Z,1.13
2022-11-05T13:20:45.858Z,0.70
2022-11-05T13:23:49.690Z,1.67
2022-11-05T13:26:46.531Z,2.38
2022-11-05T13:29:38.215Z,2.00
2022-11-05T13:32:32.032Z,1.65
2022-11-05T13:35:24.587Z,4.45
2022-11-05T13:38:39.919Z,1.70
2022-11-05T13:41:42.241Z,1.48
2022-11-05T13:44:52.377Z,1.50
2022-11-05T13:48:04.803Z,1.50
2022-11-05T13:51:07.789Z,1.80
2022-11-05T13:54:21.170Z,1.75
2022-11-05T13:57:38.398Z,1.50
2022-11-05T14:00:29.488Z,1.70
2022-11-05T14:03:19.983Z,1.73
2022-11-05T14:06:07.499Z,1.42
2022-11-05T14:08:58.570Z,1.50
2022-11-05T14:11:50.238Z,1.35
2022-11-05T14:14:45.393Z,1.10
2022-11-05T14:17:54.438Z,1.50
2022-11-05T14:20:46.384Z,1.40
2022-11-05T14:23:38.462Z,1.20
2022-11-05T14:26:28.361Z,1.20
2022-11-05T14:29:24.152Z,1.07
2022-11-05T14:32:21.481Z,1.30
2022-11-05T14:35:15.488Z,1.17
2022-11-05T14:38:00.336Z,1.30
2022-11-05T14:40:46.410Z,1.35
2022-11-05T14:43:33.137Z,1.20
2022-11-05T14:46:18.326Z,1.48
2022-11-05T14:49:09.293Z,1.20
2022-11-05T14:51:57.289Z,1.27
2022-11-05T14:54:50.441Z,1.40
2022-11-05T14:57:51.001Z,0.97
2022-11-05T15:00:46.976Z,1.08
2022-11-05T15:03:45.794Z,1.15
2022-11-05T15:06:47.974Z,1.23
2022-11-05T15:10:05.725Z,0.98
2022-11-05T15:13:02.125Z,1.33
2022-11-05T15:15:56.986Z,1.48
2022-11-05T15:18:51.984Z,1.35
2022-11-05T15:21:45.002Z,1.60
2022-11-05T15:24:37.985Z,1.35
2022-11-05T15:27:44.382Z,1.50
2022-11-05T15:30:35.990Z,1.50
2022-11-05T15:33:21.956Z,1.60
2022-11-05T15:36:17.993Z,2.55
2022-11-05T15:39:38.425Z,1.95
2022-11-05T15:42:33.992Z,1.87
2022-11-05T15:45:20.444Z,1.77
2022-11-05T15:48:24.002Z,1.60
2022-11-05T15:51:14.988Z,1.77
2022-11-05T15:54:28.981Z,1.88
2022-11-05T15:57:39.250Z,1.57
2022-11-05T16:00:27.756Z,1.63
2022-11-05T16:03:38.997Z,1.75
2022-11-05T16:06:52.044Z,1.50
2022-11-05T16:09:47.035Z,1.52
2022-11-05T16:12:42.000Z,1.40
2022-11-05T16:15:39.008Z,1.50
2022-11-05T16:18:37.012Z,1.58
2022-11-05T16:21:24.824Z,1.40
2022-11-05T16:24:29.532Z,1.63
2022-11-05T16:27:20.032Z,1.73
2022-11-05T16:30:12.013Z,1.90
2022-11-05T16:33:06.125Z,1.35
2022-11-05T16:35:58.004Z,1.60
2022-11-05T16:38:43.303Z,1.60
2022-11-05T16:41:35.018Z,1.67
2022-11-05T16:44:19.654Z,1.42
2022-11-05T16:47:11.039Z,1.63
2022-11-05T16:49:56.340Z,1.77
2022-11-05T16:52:48.025Z,2.33
2022-11-05T16:55:36.006Z,2.00
2022-11-05T16:58:30.030Z,2.72
2022-11-05T17:01:19.270Z,2.33
2022-11-05T17:04:11.005Z,2.60
2022-11-05T17:07:16.026Z,3.13
2022-11-05T17:10:08.007Z,2.10
2022-11-05T17:12:53.641Z,2.00
2022-11-05T17:15:45.010Z,2.70
2022-11-05T17:18:30.109Z,3.13
2022-11-05T17:21:22.043Z,3.13
2022-11-05T17:24:07.749Z,3.23
2022-11-05T17:26:59.050Z,2.78
2022-11-05T17:29:44.054Z,3.17
2022-11-05T17:32:36.096Z,3.22
2022-11-05T17:35:21.464Z,2.08
2022-11-05T17:38:13.070Z,2.73
2022-11-05T17:40:57.987Z,3.25
2022-11-05T17:43:50.069Z,3.35
2022-11-05T17:46:35.197Z,3.03
2022-11-05T17:49:27.136Z,2.72
2022-11-05T17:52:12.166Z,3.10
2022-11-05T17:55:04.011Z,3.63
2022-11-05T17:57:58.079Z,3.75
2022-11-05T18:00:44.406Z,3.08
2022-11-05T18:03:36.044Z,3.33
2022-11-05T18:06:41.071Z,3.57
2022-11-05T18:09:33.053Z,3.70
2022-11-05T18:12:17.880Z,3.40
2022-11-05T18:15:10.035Z,3.75
2022-11-05T18:17:55.174Z,3.65
2022-11-05T18:20:47.013Z,3.80
2022-11-05T18:23:32.511Z,3.85
2022-11-05T18:26:25.038Z,3.53
2022-11-05T18:29:16.041Z,4.50
2022-11-05T18:32:01.419Z,4.00
2022-11-05T18:34:53.030Z,3.23
2022-11-05T18:37:38.699Z,4.07
2022-11-05T18:40:30.082Z,4.07
2022-11-05T18:43:15.314Z,3.88
2022-11-05T18:46:07.047Z,3.72
2022-11-05T18:48:51.975Z,2.30
2022-11-05T18:51:44.043Z,3.67
2022-11-05T18:54:35.021Z,4.00
2022-11-05T18:57:23.358Z,4.05
2022-11-05T19:00:15.042Z,4.32
2022-11-05T19:03:00.064Z,4.37
2022-11-05T19:05:52.038Z,4.10
2022-11-05T19:08:44.501Z,4.20
2022-11-05T19:11:36.041Z,4.60
2022-11-05T19:14:20.826Z,3.95
2022-11-05T19:17:13.042Z,4.87
2022-11-05T19:19:58.277Z,4.13
2022-11-05T19:22:50.049Z,3.95
2022-11-05T19:25:37.876Z,4.60
2022-11-05T19:28:30.046Z,4.35
2022-11-05T19:31:18.719Z,4.07
2022-11-05T19:34:12.034Z,4.18
2022-11-05T19:37:03.092Z,4.55
2022-11-05T19:39:48.213Z,3.22
2022-11-05T19:42:40.044Z,4.13
2022-11-05T19:45:44.589Z,3.67
2022-11-05T19:48:31.310Z,4.20
2022-11-05T19:51:26.044Z,4.78
2022-11-05T19:54:18.087Z,4.40
2022-11-05T19:57:03.134Z,4.40
2022-11-05T19:59:57.038Z,4.70
2022-11-05T20:02:46.059Z,4.78
2022-11-05T20:05:40.043Z,4.00
2022-11-05T20:08:53.327Z,4.68
2022-11-05T20:11:44.842Z,3.60
2022-11-05T20:14:36.062Z,3.90
2022-11-05T20:17:23.314Z,4.72
2022-11-05T20:20:15.066Z,4.57
2022-11-05T20:23:00.046Z,4.38
2022-11-05T20:25:52.040Z,4.72
2022-11-05T20:28:45.058Z,4.20
2022-11-05T20:31:30.439Z,4.13
2022-11-05T20:34:22.113Z,4.28
2022-11-05T20:37:13.051Z,4.22
2022-11-05T20:39:58.041Z,4.15
2022-11-05T20:42:50.058Z,3.90
2022-11-05T20:45:42.051Z,3.80
2022-11-05T20:48:37.073Z,3.33
2022-11-05T20:51:31.049Z,3.45
2022-11-05T20:54:16.205Z,3.60
2022-11-05T20:57:08.059Z,3.73
2022-11-05T20:59:53.133Z,3.33
2022-11-05T21:02:45.209Z,3.65
2022-11-05T21:05:35.316Z,3.58
2022-11-05T21:08:34.070Z,3.40
2022-11-05T21:11:20.098Z,3.57
2022-11-05T21:14:11.071Z,3.47
2022-11-05T21:16:55.924Z,3.80
2022-11-05T21:19:47.072Z,3.70
2022-11-05T21:22:31.969Z,3.38
2022-11-05T21:25:24.075Z,3.37
2022-11-05T21:28:10.530Z,3.38
2022-11-05T21:31:07.055Z,3.40
2022-11-05T21:33:55.203Z,3.88
2022-11-05T21:36:47.064Z,3.28
2022-11-05T21:39:33.930Z,3.83
2022-11-05T21:42:26.071Z,3.75
2022-11-05T21:45:11.314Z,3.47
2022-11-05T21:48:03.081Z,4.07
2022-11-05T21:51:17.082Z,4.25
2022-11-05T21:54:20.929Z,4.30
2022-11-05T21:57:38.085Z,4.60
2022-11-05T22:00:30.074Z,4.60
2022-11-05T22:03:22.077Z,4.25
2022-11-05T22:06:14.081Z,4.20
2022-11-05T22:09:06.107Z,4.90
2022-11-05T22:11:58.099Z,4.38
2022-11-05T22:14:50.071Z,3.95
2022-11-05T22:17:35.219Z,4.30
2022-11-05T22:20:27.101Z,4.20
2022-11-05T22:23:12.220Z,3.90
2022-11-05T22:26:08.078Z,4.18
2022-11-05T22:29:01.110Z,4.65
2022-11-05T22:31:46.151Z,4.28
2022-11-05T22:34:38.113Z,4.32
2022-11-05T22:37:29.093Z,3.93
2022-11-05T22:40:23.416Z,4.05
2022-11-05T22:43:16.091Z,4.38
2022-11-05T22:46:10.296Z,4.40
2022-11-05T22:49:05.066Z,4.50
2022-11-05T22:51:56.102Z,4.23
2022-11-05T22:54:41.277Z,4.22
2022-11-05T22:57:33.084Z,4.10
2022-11-05T23:00:25.092Z,3.70
2022-11-05T23:03:16.088Z,4.45
2022-11-05T23:06:27.038Z,3.90
2022-11-05T23:09:44.653Z,3.90
2022-11-05T23:12:37.635Z,3.42
2022-11-05T23:15:41.611Z,3.38
2022-11-05T23:18:48.221Z,3.40
2022-11-05T23:21:52.060Z,3.20
2022-11-05T23:24:37.289Z,3.50
2022-11-05T23:27:22.343Z,3.53
2022-11-05T23:30:11.955Z,3.50
2022-11-05T23:32:56.984Z,3.72
2022-11-05T23:36:00.811Z,3.63
2022-11-05T23:38:45.884Z,3.45
2022-11-05T23:41:49.387Z,3.45
2022-11-05T23:44:52.800Z,3.00
2022-11-05T23:47:56.387Z,2.90
2022-11-05T23:50:52.006Z,2.70
2022-11-05T23:53:39.299Z,2.47
2022-11-05T23:56:24.089Z,1.92
2022-11-05T23:59:09.557Z,2.50
